Time;durP1;ratioP1;P1;durP2;ratioP2;P2;SDS_P1;SDS_P2;PMS_P1;PMS_P2;Temp;Humidity;BMP_temperature;BMP_pressure;BME280_temperature;BME280_humidity;BME280_pressure;Samples;Min_cycle;Max_cycle;Signal;HPM_P1;HPM_P2
2022/01/02 00:00:09;;;;;;;14.07;6.73;;;;;;;1.60;100.00;97125.03;5031047;28;20480;-73
2022/01/02 00:02:36;;;;;;;8.10;6.20;;;;;;;1.50;100.00;97117.16;5014169;28;20513;-73
2022/01/02 00:05:17;;;;;;;11.13;6.53;;;;;;;1.83;100.00;97133.56;5031007;28;20438;-73
2022/01/02 00:07:52;;;;;;;8.00;6.20;;;;;;;1.85;100.00;97110.63;5030940;28;20537;-74
2022/01/02 00:10:21;;;;;;;8.20;5.37;;;;;;;1.98;100.00;97110.97;5030961;28;20477;-73
2022/01/02 00:12:59;;;;;;;11.03;6.00;;;;;;;2.12;100.00;97102.72;5030380;28;20438;-73
2022/01/02 00:15:27;;;;;;;9.30;6.00;;;;;;;1.92;100.00;97082.53;4997823;28;20561;-74
2022/01/02 00:17:57;;;;;;;10.53;7.57;;;;;;;2.08;100.00;97090.19;5012011;28;21133;-73
2022/01/02 00:20:44;;;;;;;12.17;8.17;;;;;;;2.14;100.00;97095.41;5013459;28;20469;-74
2022/01/02 00:23:17;;;;;;;15.17;7.03;;;;;;;1.88;100.00;97094.50;5030527;28;20422;-74
2022/01/02 00:25:45;;;;;;;10.50;6.50;;;;;;;1.55;100.00;97067.69;5045794;28;20447;-73
2022/01/02 00:28:12;;;;;;;9.03;5.97;;;;;;;1.93;100.00;97084.09;5074622;28;20452;-74
2022/01/02 00:30:41;;;;;;;6.40;5.00;;;;;;;1.91;100.00;97075.75;5074443;28;20444;-73
2022/01/02 00:33:08;;;;;;;9.63;6.20;;;;;;;1.86;100.00;97071.25;5058099;28;20447;-73
2022/01/02 00:35:37;;;;;;;9.70;6.40;;;;;;;1.86;100.00;97057.44;5074719;28;20973;-78
2022/01/02 00:38:16;;;;;;;9.87;7.70;;;;;;;2.01;100.00;97054.94;5075173;28;20505;-76
2022/01/02 00:40:46;;;;;;;8.90;6.40;;;;;;;2.10;100.00;97042.97;5075517;28;20411;-76
2022/01/02 00:43:19;;;;;;;14.00;8.33;;;;;;;2.16;100.00;97038.59;5092083;28;20844;-75
2022/01/02 00:45:51;;;;;;;10.10;8.47;;;;;;;2.04;100.00;97017.94;5076355;28;20435;-77
2022/01/02 00:48:29;;;;;;;11.40;6.60;;;;;;;1.72;100.00;97026.59;5075336;28;20451;-73
2022/01/02 00:51:01;;;;;;;8.60;6.40;;;;;;;1.62;100.00;97042.19;5075924;28;20522;-74
2022/01/02 00:53:35;;;;;;;8.93;6.63;;;;;;;1.84;100.00;97031.63;5075351;28;20424;-74
2022/01/02 00:56:03;;;;;;;10.20;7.23;;;;;;;1.76;100.00;97001.63;5092759;28;20840;-73
2022/01/02 00:58:42;;;;;;;6.23;5.23;;;;;;;1.83;100.00;97000.59;5074882;28;20452;-73
2022/01/02 01:01:14;;;;;;;11.17;8.87;;;;;;;2.02;100.00;97018.19;5075685;28;20459;-73
2022/01/02 01:03:41;;;;;;;6.50;5.67;;;;;;;2.03;100.00;97026.78;5093480;28;20506;-73
2022/01/02 01:06:10;;;;;;;13.37;6.97;;;;;;;1.91;100.00;97019.16;5074800;28;20496;-72
2022/01/02 01:08:40;;;;;;;13.77;7.17;;;;;;;1.82;100.00;97038.13;5056292;28;20451;-73
2022/01/02 01:11:08;;;;;;;9.63;7.23;;;;;;;1.53;100.00;97003.81;5074598;28;20439;-73
2022/01/02 01:13:35;;;;;;;9.90;7.10;;;;;;;1.73;100.00;97028.19;5073514;28;20461;-73
2022/01/02 01:16:02;;;;;;;9.80;6.40;;;;;;;1.82;100.00;97035.53;5073262;28;20954;-73
2022/01/02 01:18:30;;;;;;;10.33;6.97;;;;;;;1.91;100.00;97039.25;5091514;28;20451;-73
2022/01/02 01:20:56;;;;;;;7.93;6.07;;;;;;;1.84;100.00;97028.25;5056762;28;20436;-73
2022/01/02 01:23:23;;;;;;;9.57;5.80;;;;;;;1.98;100.00;97050.22;5074117;28;20438;-74
2022/01/02 01:25:50;;;;;;;15.73;5.77;;;;;;;1.86;100.00;97028.78;5057305;28;20870;-74
2022/01/02 01:28:17;;;;;;;7.80;6.50;;;;;;;1.77;100.00;97049.31;5057221;28;20451;-73
2022/01/02 01:30:44;;;;;;;7.00;5.20;;;;;;;1.62;100.00;97044.81;5073526;28;20442;-74
2022/01/02 01:33:11;;;;;;;7.43;5.90;;;;;;;1.53;100.00;97019.47;5073567;28;20957;-73
2022/01/02 01:35:40;;;;;;;7.40;5.30;;;;;;;1.49;100.00;97027.00;5073712;28;20471;-73
2022/01/02 01:38:07;;;;;;;8.53;5.80;;;;;;;1.43;100.00;97033.19;5073819;28;20463;-73
2022/01/02 01:40:47;;;;;;;11.77;5.50;;;;;;;1.39;100.00;97008.69;5057244;28;20443;-74
2022/01/02 01:43:14;;;;;;;12.40;7.90;;;;;;;1.47;100.00;97003.03;5073888;28;20422;-73
2022/01/02 01:45:42;;;;;;;7.10;5.17;;;;;;;1.51;100.00;96992.88;5073747;28;20435;-73
2022/01/02 01:48:09;;;;;;;10.47;6.63;;;;;;;1.49;100.00;97008.75;5090836;28;21008;-73
2022/01/02 01:50:39;;;;;;;7.17;6.33;;;;;;;1.47;100.00;96987.38;5057682;28;20446;-73
2022/01/02 01:53:09;;;;;;;7.30;6.47;;;;;;;1.60;100.00;96999.16;5057990;28;20431;-73
2022/01/02 01:55:39;;;;;;;8.60;6.30;;;;;;;1.48;100.00;96961.09;5057479;28;20463;-74
2022/01/02 01:58:07;;;;;;;9.40;6.50;;;;;;;1.92;100.00;96994.66;5073712;28;20451;-73
2022/01/02 02:00:38;;;;;;;9.13;6.40;;;;;;;1.77;100.00;96994.59;5057495;28;20431;-73
2022/01/02 02:03:11;;;;;;;6.87;5.47;;;;;;;1.38;100.00;96984.47;5074076;28;20494;-73
2022/01/02 02:05:39;;;;;;;7.73;5.60;;;;;;;1.49;100.00;96985.31;5092968;28;20837;-73
2022/01/02 02:08:07;;;;;;;18.53;5.90;;;;;;;1.54;100.00;96974.91;5074658;28;20455;-73
2022/01/02 02:10:38;;;;;;;8.67;5.70;;;;;;;1.48;100.00;96957.69;5075650;28;20499;-73
2022/01/02 02:13:07;;;;;;;9.37;6.83;;;;;;;1.51;100.00;96961.59;5075311;28;20530;-73
2022/01/02 02:15:39;;;;;;;11.40;6.90;;;;;;;1.38;100.00;96958.41;5092830;28;20850;-73
2022/01/02 02:18:07;;;;;;;10.50;7.30;;;;;;;1.35;100.00;96971.94;5076411;28;20493;-73
2022/01/02 02:20:36;;;;;;;7.13;5.53;;;;;;;1.14;100.00;96978.81;5061904;28;20563;-73
2022/01/02 02:23:15;;;;;;;5.23;4.57;;;;;;;0.86;100.00;96964.28;5064581;28;20443;-74
2022/01/02 02:25:43;;;;;;;7.10;5.23;;;;;;;0.91;100.00;96971.34;5062763;28;20798;-73
2022/01/02 02:28:13;;;;;;;9.03;5.20;;;;;;;1.17;100.00;96967.09;5078593;28;20491;-73
2022/01/02 02:30:43;;;;;;;9.20;6.23;;;;;;;1.12;100.00;96949.63;5078934;28;20427;-73
2022/01/02 02:33:12;;;;;;;10.17;7.40;;;;;;;1.16;100.00;96968.16;5077698;28;20439;-73
2022/01/02 02:35:41;;;;;;;13.43;6.83;;;;;;;1.22;100.00;96961.16;5061769;28;20634;-73
2022/01/02 02:38:09;;;;;;;17.17;7.40;;;;;;;1.34;100.00;96957.34;5078211;28;20465;-73
2022/01/02 02:40:38;;;;;;;18.90;9.53;;;;;;;1.38;100.00;96957.63;5061637;28;20511;-73
2022/01/02 02:49:05;;;;;;;15.00;7.23;;;;;;;1.40;100.00;96939.91;5078237;28;20502;-73
2022/01/02 02:51:13;;;;;;;16.13;7.67;;;;;;;1.15;100.00;96943.94;5077261;28;20454;-73
2022/01/02 02:53:43;;;;;;;18.50;7.77;;;;;;;1.12;100.00;96922.81;5077425;28;20468;-73
2022/01/02 02:56:19;;;;;;;15.43;8.17;;;;;;;1.34;100.00;96923.50;5061738;28;21280;-74
2022/01/02 02:58:52;;;;;;;13.97;7.70;;;;;;;1.37;100.00;96922.19;5061074;28;20810;-74
2022/01/02 03:01:20;;;;;;;14.20;8.53;;;;;;;1.40;100.00;96900.84;5060981;28;20443;-75
2022/01/02 03:03:49;;;;;;;16.07;8.67;;;;;;;1.41;100.00;96916.22;5061724;28;20522;-73
2022/01/02 03:06:17;;;;;;;13.03;8.97;;;;;;;1.28;100.00;96887.22;5061862;28;20506;-73
2022/01/02 03:08:45;;;;;;;15.90;8.50;;;;;;;1.38;100.00;96895.88;5078021;28;20467;-73
2022/01/02 03:11:15;;;;;;;13.33;7.50;;;;;;;1.35;100.00;96906.03;5078488;28;20475;-73
2022/01/02 03:13:42;;;;;;;15.70;7.60;;;;;;;1.33;100.00;96900.28;5093901;28;20442;-73
2022/01/02 03:16:10;;;;;;;15.10;8.47;;;;;;;1.17;100.00;96863.72;5076733;28;20839;-73
2022/01/02 03:18:37;;;;;;;16.83;8.17;;;;;;;1.37;100.00;96891.72;5095532;28;20481;-73
2022/01/02 03:21:07;;;;;;;11.87;7.23;;;;;;;1.26;100.00;96877.06;5077082;28;20838;-73
2022/01/02 03:23:35;;;;;;;19.73;8.00;;;;;;;1.21;100.00;96864.03;5059926;28;20518;-73
2022/01/02 03:26:02;;;;;;;24.20;8.27;;;;;;;1.14;100.00;96884.28;5076691;28;20438;-73
2022/01/02 03:28:28;;;;;;;14.47;7.07;;;;;;;0.91;100.00;96880.22;5076349;28;20509;-73
2022/01/02 03:30:55;;;;;;;14.77;9.97;;;;;;;1.12;100.00;96894.97;5094223;28;20435;-73
2022/01/02 03:33:24;;;;;;;18.93;11.43;;;;;;;1.21;100.00;96900.50;5093077;28;20877;-72
2022/01/02 03:35:51;;;;;;;17.63;11.07;;;;;;;1.10;100.00;96873.59;5060019;28;20962;-73
2022/01/02 03:38:18;;;;;;;18.57;10.40;;;;;;;1.17;100.00;96878.56;5076377;28;20790;-73
2022/01/02 03:40:46;;;;;;;19.70;8.70;;;;;;;0.91;100.00;96874.25;5076424;28;20444;-73
2022/01/02 03:43:13;;;;;;;15.63;7.60;;;;;;;0.86;100.00;96872.41;5076330;28;20439;-73
2022/01/02 03:45:40;;;;;;;30.67;8.83;;;;;;;1.14;100.00;96885.06;5076547;28;20439;-73
2022/01/02 03:48:07;;;;;;;21.90;9.53;;;;;;;1.06;100.00;96887.34;5075903;28;20978;-73
2022/01/02 03:50:34;;;;;;;18.50;8.20;;;;;;;1.03;100.00;96877.44;5059539;28;20439;-73
2022/01/02 03:53:01;;;;;;;18.90;9.20;;;;;;;0.93;100.00;96849.53;5076099;28;20446;-73
2022/01/02 03:55:28;;;;;;;24.37;10.40;;;;;;;1.10;100.00;96865.78;5075996;28;20455;-73
2022/01/02 03:57:55;;;;;;;17.07;10.20;;;;;;;1.16;100.00;96864.00;5076044;28;20488;-73
2022/01/02 04:00:21;;;;;;;17.20;10.30;;;;;;;1.03;100.00;96847.00;5075721;28;20447;-73
2022/01/02 04:02:48;;;;;;;14.23;9.90;;;;;;;1.05;100.00;96847.53;5059407;28;20978;-72
2022/01/02 04:05:17;;;;;;;21.60;10.87;;;;;;;1.07;100.00;96852.47;5075866;28;20565;-73
2022/01/02 04:07:46;;;;;;;26.67;8.73;;;;;;;0.56;100.00;96852.94;5076697;28;20822;-73
2022/01/02 04:10:15;;;;;;;18.20;8.97;;;;;;;0.68;100.00;96860.56;5076131;28;20439;-74
2022/01/02 04:12:42;;;;;;;18.27;8.67;;;;;;;0.77;100.00;96868.69;5076177;28;20451;-73
2022/01/02 04:15:11;;;;;;;12.30;8.17;;;;;;;0.85;100.00;96868.22;5076741;28;21126;-73
2022/01/02 04:17:39;;;;;;;15.07;8.67;;;;;;;0.77;100.00;96855.69;5076168;28;20456;-73
2022/01/02 04:20:09;;;;;;;10.77;7.43;;;;;;;0.80;100.00;96847.38;5075419;28;20467;-73
2022/01/02 04:22:36;;;;;;;12.80;7.13;;;;;;;1.03;100.00;96870.44;5074069;28;20968;-73
2022/01/02 04:25:04;;;;;;;12.30;7.13;;;;;;;1.00;100.00;96850.09;5074281;28;20431;-74
2022/01/02 04:27:31;;;;;;;15.60;8.30;;;;;;;1.05;100.00;96854.53;5073993;28;20459;-73
2022/01/02 04:29:58;;;;;;;14.83;9.67;;;;;;;0.93;100.00;96844.31;5057445;28;20496;-73
2022/01/02 04:32:25;;;;;;;16.33;10.57;;;;;;;1.07;100.00;96860.28;5057752;28;20823;-73
2022/01/02 04:34:53;;;;;;;15.47;8.23;;;;;;;0.92;100.00;96862.78;5074127;28;20461;-73
2022/01/02 04:37:20;;;;;;;11.37;7.00;;;;;;;0.43;100.00;96845.56;5073930;28;20546;-74
2022/01/02 04:39:48;;;;;;;20.23;8.00;;;;;;;0.52;100.00;96840.66;5073909;28;20439;-73
2022/01/02 04:42:15;;;;;;;22.13;8.57;;;;;;;0.64;100.00;96823.06;5056524;28;20505;-73
2022/01/02 04:44:42;;;;;;;26.33;7.10;;;;;;;0.89;100.00;96840.66;5074299;28;20439;-73
2022/01/02 04:47:09;;;;;;;20.43;8.83;;;;;;;0.87;100.00;96845.34;5090781;28;20442;-73
2022/01/02 04:49:36;;;;;;;24.17;6.80;;;;;;;0.84;100.00;96862.25;5057240;28;20443;-73
2022/01/02 04:52:04;;;;;;;29.00;7.70;;;;;;;0.78;100.00;96857.25;5073879;28;20871;-73
2022/01/02 04:54:30;;;;;;;36.53;8.47;;;;;;;0.65;100.00;96842.84;5073501;28;20493;-73
2022/01/02 04:56:57;;;;;;;14.70;6.43;;;;;;;0.67;100.00;96845.19;5057310;28;20436;-73
2022/01/02 04:59:24;;;;;;;21.87;8.47;;;;;;;0.69;100.00;96840.53;5056892;28;20559;-73
2022/01/02 05:01:51;;;;;;;9.77;5.80;;;;;;;0.64;100.00;96828.25;5090244;28;20965;-73
2022/01/02 05:04:18;;;;;;;14.43;6.90;;;;;;;0.64;100.00;96843.88;5056985;28;20873;-73
2022/01/02 05:06:46;;;;;;;15.47;6.90;;;;;;;0.35;100.00;96829.63;5057045;28;20457;-73
2022/01/02 05:09:14;;;;;;;25.73;7.57;;;;;;;0.14;100.00;96826.06;5056878;28;20828;-74
2022/01/02 05:11:42;;;;;;;18.67;6.37;;;;;;;0.46;100.00;96836.47;5091559;28;20428;-74
2022/01/02 05:14:09;;;;;;;19.73;5.83;;;;;;;0.54;100.00;96849.03;5073432;28;20522;-73
2022/01/02 05:16:35;;;;;;;15.10;5.70;;;;;;;0.42;100.00;96823.19;5056796;28;20463;-73
2022/01/02 05:19:02;;;;;;;8.03;6.50;;;;;;;0.64;100.00;96843.09;5091494;28;20980;-73
2022/01/02 05:21:31;;;;;;;8.30;5.87;;;;;;;0.63;100.00;96829.31;5073236;28;20450;-73
2022/01/02 05:23:58;;;;;;;10.97;6.40;;;;;;;0.57;100.00;96828.50;5073140;28;20513;-73
2022/01/02 05:26:25;;;;;;;16.63;6.00;;;;;;;0.42;100.00;96825.00;5073238;28;20808;-73
2022/01/02 05:28:51;;;;;;;9.13;6.47;;;;;;;0.54;100.00;96838.63;5056645;28;20452;-73
2022/01/02 05:31:19;;;;;;;12.13;6.40;;;;;;;0.58;100.00;96834.47;5073255;28;20443;-73
2022/01/02 05:33:46;;;;;;;8.67;5.67;;;;;;;0.47;100.00;96806.81;5056654;28;20446;-73
2022/01/02 05:36:12;;;;;;;9.80;6.87;;;;;;;0.56;100.00;96820.94;5091139;28;20451;-73
2022/01/02 05:38:40;;;;;;;7.07;6.30;;;;;;;0.62;100.00;96819.16;5073167;28;20505;-73
2022/01/02 05:41:07;;;;;;;12.63;8.03;;;;;;;0.61;100.00;96812.38;5073306;28;20497;-73
2022/01/02 05:43:34;;;;;;;13.37;7.73;;;;;;;0.78;100.00;96805.97;5073201;28;20439;-72
2022/01/02 05:46:05;;;;;;;12.70;7.23;;;;;;;0.79;100.00;96804.94;5073200;28;20443;-72
2022/01/02 05:48:34;;;;;;;9.20;7.00;;;;;;;0.68;100.00;96807.75;5056890;28;20455;-73
2022/01/02 05:51:02;;;;;;;14.60;8.90;;;;;;;0.66;100.00;96781.19;5073255;28;20534;-72
2022/01/02 05:53:30;;;;;;;10.90;7.60;;;;;;;0.75;100.00;96806.50;5058255;28;20542;-73
2022/01/02 05:55:57;;;;;;;9.10;6.53;;;;;;;0.70;100.00;96785.66;5076695;28;20459;-73
2022/01/02 05:58:24;;;;;;;10.23;8.07;;;;;;;0.77;100.00;96801.03;5060051;28;20482;-72
2022/01/02 06:00:51;;;;;;;8.57;7.30;;;;;;;0.67;100.00;96788.75;5077017;28;20447;-73
2022/01/02 06:03:19;;;;;;;10.53;6.10;;;;;;;0.50;100.00;96770.69;5076576;28;20445;-73
2022/01/02 06:05:47;;;;;;;8.63;7.60;;;;;;;0.69;100.00;96796.31;5093515;28;20867;-72
2022/01/02 06:08:14;;;;;;;8.33;7.10;;;;;;;0.78;100.00;96797.38;5059984;28;20463;-73
2022/01/02 06:10:42;;;;;;;7.67;6.87;;;;;;;0.75;100.00;96788.28;5076881;28;20885;-73
2022/01/02 06:13:10;;;;;;;12.90;9.73;;;;;;;0.64;100.00;96796.25;5060327;28;20440;-73
2022/01/02 06:15:37;;;;;;;9.50;7.80;;;;;;;0.76;100.00;96789.06;5094649;28;20505;-73
2022/01/02 06:18:04;;;;;;;12.97;9.27;;;;;;;0.79;100.00;96780.75;5076276;28;20469;-73
2022/01/02 06:20:32;;;;;;;10.90;8.80;;;;;;;0.64;100.00;96773.63;5076279;28;20474;-72
2022/01/02 06:22:59;;;;;;;11.77;8.53;;;;;;;0.52;100.00;96753.00;5059749;28;20976;-72
2022/01/02 06:25:26;;;;;;;12.97;8.97;;;;;;;0.64;100.00;96780.66;5059776;28;20954;-73
2022/01/02 06:27:53;;;;;;;18.83;11.20;;;;;;;0.65;100.00;96777.81;5076121;28;20510;-73
2022/01/02 06:30:20;;;;;;;12.03;9.63;;;;;;;0.77;100.00;96782.81;5059771;28;20451;-73
2022/01/02 06:32:54;;;;;;;10.63;8.13;;;;;;;0.65;100.00;96774.41;5076046;28;20439;-73
2022/01/02 06:35:24;;;;;;;10.20;7.93;;;;;;;0.76;100.00;96776.03;5076349;28;20522;-73
2022/01/02 06:37:52;;;;;;;12.77;7.80;;;;;;;0.54;100.00;96755.38;5075982;28;20459;-73
2022/01/02 06:40:21;;;;;;;13.00;7.93;;;;;;;0.71;100.00;96778.63;5075776;28;20435;-72
2022/01/02 06:42:48;;;;;;;17.07;8.70;;;;;;;0.77;100.00;96769.81;5059662;28;20958;-73
2022/01/02 06:45:15;;;;;;;14.73;9.27;;;;;;;0.49;100.00;96757.94;5075883;28;20825;-73
2022/01/02 06:47:43;;;;;;;15.60;8.40;;;;;;;0.21;100.00;96722.66;5059263;28;20538;-73
2022/01/02 06:50:13;;;;;;;25.47;9.10;;;;;;;0.58;100.00;96761.63;5075840;28;20508;-73
2022/01/02 06:52:40;;;;;;;16.97;8.90;;;;;;;0.71;100.00;96750.78;5075951;28;20416;-73
2022/01/02 06:55:07;;;;;;;26.57;11.23;;;;;;;0.70;100.00;96759.63;5059069;28;20474;-73
2022/01/02 06:57:34;;;;;;;31.87;8.57;;;;;;;0.79;100.00;96757.31;5075592;28;20513;-72
2022/01/02 07:00:04;;;;;;;19.90;10.47;;;;;;;0.76;100.00;96756.00;5058956;28;20435;-73
2022/01/02 07:02:32;;;;;;;13.67;9.13;;;;;;;0.75;100.00;96757.06;5059169;28;20467;-73
2022/01/02 07:05:00;;;;;;;13.77;11.17;;;;;;;0.81;100.00;96757.88;5074424;28;20793;-73
2022/01/02 07:07:28;;;;;;;20.60;10.80;;;;;;;0.85;100.00;96761.53;5075758;28;20519;-73
2022/01/02 07:09:55;;;;;;;27.10;10.77;;;;;;;0.83;100.00;96755.81;5058868;28;20439;-73
2022/01/02 07:12:23;;;;;;;19.20;10.20;;;;;;;0.80;100.00;96719.84;5075437;28;20451;-72
2022/01/02 07:14:50;;;;;;;14.17;9.83;;;;;;;0.95;100.00;96738.16;5075662;28;20443;-74
2022/01/02 07:17:17;;;;;;;25.97;9.23;;;;;;;1.02;100.00;96740.50;5075139;28;20455;-74
2022/01/02 07:19:44;;;;;;;13.30;7.30;;;;;;;1.01;100.00;96736.34;5075195;28;20493;-73
2022/01/02 07:22:11;;;;;;;16.57;8.20;;;;;;;0.94;100.00;96725.41;5058717;28;20467;-73
2022/01/02 07:24:39;;;;;;;18.60;9.33;;;;;;;0.86;100.00;96718.84;5075113;28;20982;-73
2022/01/02 07:27:09;;;;;;;14.43;9.30;;;;;;;0.67;100.00;96710.72;5075043;28;20419;-73
2022/01/02 07:29:35;;;;;;;13.63;8.30;;;;;;;0.93;100.00;96716.78;5075025;28;20549;-73
2022/01/02 07:32:02;;;;;;;27.33;8.90;;;;;;;0.98;100.00;96703.03;5058505;28;20436;-73
2022/01/02 07:34:29;;;;;;;22.70;8.70;;;;;;;0.99;100.00;96700.16;5058440;28;20436;-73
2022/01/02 07:36:56;;;;;;;17.73;7.83;;;;;;;1.09;100.00;96723.63;5075452;28;20852;-73
2022/01/02 07:39:22;;;;;;;20.00;9.70;;;;;;;0.97;100.00;96696.25;5093412;28;20451;-72
2022/01/02 07:41:49;;;;;;;15.60;7.90;;;;;;;0.96;100.00;96695.47;5074852;28;20443;-73
2022/01/02 07:44:16;;;;;;;12.53;7.40;;;;;;;1.02;100.00;96704.06;5058368;28;20447;-73
2022/01/02 07:46:43;;;;;;;11.23;7.53;;;;;;;1.31;100.00;96735.66;5075035;28;20930;-73
2022/01/02 07:49:10;;;;;;;17.53;8.47;;;;;;;1.16;100.00;96720.78;5074775;28;20515;-74
2022/01/02 07:51:37;;;;;;;14.27;9.00;;;;;;;1.18;100.00;96724.69;5074946;28;20478;-73
2022/01/02 07:54:04;;;;;;;18.50;9.10;;;;;;;1.19;100.00;96730.66;5092996;28;20428;-74
2022/01/02 07:56:31;;;;;;;16.37;9.30;;;;;;;0.97;100.00;96707.44;5074835;28;20869;-73
2022/01/02 07:58:58;;;;;;;13.33;9.40;;;;;;;1.13;100.00;96734.31;5074701;28;20530;-73
2022/01/02 08:01:25;;;;;;;16.97;9.57;;;;;;;1.12;100.00;96743.16;5059722;28;20443;-74
2022/01/02 08:03:52;;;;;;;25.60;10.00;;;;;;;1.04;100.00;96754.84;5094225;28;20419;-73
2022/01/02 08:06:19;;;;;;;15.60;9.17;;;;;;;1.11;100.00;96758.00;5058593;28;20432;-73
2022/01/02 08:08:46;;;;;;;12.27;9.97;;;;;;;1.30;100.00;96760.13;5075382;28;20502;-73
2022/01/02 08:11:15;;;;;;;11.10;8.97;;;;;;;1.54;100.00;96763.84;5059339;28;20436;-74
2022/01/02 08:14:03;;;;;;;14.70;10.47;;;;;;;1.65;100.00;96757.63;5092389;28;20508;-74
2022/01/02 08:16:30;;;;;;;16.20;11.83;;;;;;;1.57;100.00;96763.34;5057470;28;20501;-74
2022/01/02 08:18:56;;;;;;;12.43;9.53;;;;;;;1.67;100.00;96767.78;5057705;28;20455;-73
2022/01/02 08:21:23;;;;;;;15.07;9.90;;;;;;;1.66;100.00;96740.94;5057568;28;20489;-74
2022/01/02 08:23:50;;;;;;;11.60;9.27;;;;;;;1.75;100.00;96752.44;5092206;28;20504;-74
2022/01/02 08:26:20;;;;;;;10.27;8.50;;;;;;;1.88;100.00;96758.19;5057881;28;20435;-74
2022/01/02 08:28:47;;;;;;;18.07;14.90;;;;;;;1.82;100.00;96740.97;5073869;28;20566;-73
2022/01/02 08:31:13;;;;;;;34.83;23.07;;;;;;;1.88;100.00;96734.72;5074243;28;20467;-73
2022/01/02 08:33:40;;;;;;;21.83;16.50;;;;;;;1.85;100.00;96712.53;5074054;28;20439;-74
2022/01/02 08:36:07;;;;;;;21.13;18.60;;;;;;;1.81;100.00;96721.94;5073778;28;20485;-74
2022/01/02 08:38:33;;;;;;;25.27;18.37;;;;;;;2.00;100.00;96735.22;5073661;28;20451;-73
2022/01/02 08:41:00;;;;;;;23.13;17.17;;;;;;;2.01;100.00;96721.19;5074023;28;20440;-74
2022/01/02 08:43:27;;;;;;;19.33;16.73;;;;;;;2.15;100.00;96731.88;5091941;28;20462;-74
2022/01/02 08:45:53;;;;;;;24.43;15.37;;;;;;;2.21;100.00;96721.16;5073872;28;20423;-74
2022/01/02 08:48:20;;;;;;;21.00;15.13;;;;;;;2.16;100.00;96704.75;5073885;28;20806;-74
2022/01/02 08:50:47;;;;;;;18.73;13.30;;;;;;;2.33;100.00;96723.50;5092135;28;20424;-74
2022/01/02 08:53:13;;;;;;;16.47;11.90;;;;;;;2.30;100.00;96724.81;5057170;28;20493;-74
2022/01/02 08:55:40;;;;;;;21.27;15.30;;;;;;;2.42;100.00;96737.56;5073521;28;20447;-73
2022/01/02 08:58:08;;;;;;;19.00;14.47;;;;;;;2.36;100.00;96733.38;5073683;28;20949;-73
2022/01/02 09:00:35;;;;;;;17.50;15.57;;;;;;;2.30;100.00;96750.88;5073838;28;20447;-74
2022/01/02 09:03:02;;;;;;;19.80;14.07;;;;;;;2.34;100.00;96762.34;5057043;28;21000;-74
2022/01/02 09:05:29;;;;;;;18.80;14.40;;;;;;;2.55;100.00;96744.84;5091431;28;20435;-74
2022/01/02 09:07:56;;;;;;;21.93;16.20;;;;;;;2.36;100.00;96712.53;5056716;28;20996;-74
2022/01/02 09:10:23;;;;;;;23.30;15.10;;;;;;;2.47;100.00;96705.47;5091606;28;20480;-74
2022/01/02 09:12:50;;;;;;;15.60;13.23;;;;;;;2.73;100.00;96725.22;5073600;28;20435;-74
2022/01/02 09:15:17;;;;;;;16.50;12.30;;;;;;;2.68;100.00;96701.75;5056724;28;20431;-74
2022/01/02 09:17:44;;;;;;;18.13;13.03;;;;;;;2.82;100.00;96707.97;5091551;28;20482;-74
2022/01/02 09:20:13;;;;;;;18.27;13.33;;;;;;;2.99;100.00;96709.47;5056603;28;20580;-74
2022/01/02 09:22:39;;;;;;;19.80;13.70;;;;;;;2.92;100.00;96679.19;5073350;28;20431;-74
2022/01/02 09:25:09;;;;;;;24.83;17.33;;;;;;;3.26;100.00;96715.09;5073540;28;20439;-74
2022/01/02 09:27:36;;;;;;;24.50;16.30;;;;;;;3.09;100.00;96697.16;5072903;28;21100;-74
2022/01/02 09:30:05;;;;;;;27.67;17.40;;;;;;;3.25;100.00;96713.53;5056620;28;20995;-75
2022/01/02 09:32:34;;;;;;;16.43;13.57;;;;;;;3.24;100.00;96698.91;5091401;28;20439;-74
2022/01/02 09:35:03;;;;;;;18.80;13.40;;;;;;;3.22;100.00;96699.19;5056556;28;20431;-74
2022/01/02 09:37:30;;;;;;;20.17;14.93;;;;;;;3.46;100.00;96709.75;5091206;28;20467;-74
2022/01/02 09:39:56;;;;;;;19.47;13.57;;;;;;;3.33;100.00;96692.03;5091320;28;20427;-74
2022/01/02 09:42:24;;;;;;;18.00;14.70;;;;;;;3.43;100.00;96678.16;5073007;28;20439;-75
2022/01/02 09:44:50;;;;;;;17.27;14.50;;;;;;;3.60;100.00;96678.53;5073123;28;20992;-74
2022/01/02 09:47:20;;;;;;;19.17;14.00;;;;;;;3.79;100.00;96689.16;5073108;28;20466;-75
2022/01/02 09:49:48;;;;;;;16.90;13.00;;;;;;;3.76;100.00;96694.94;5073035;28;20439;-74
2022/01/02 09:52:17;;;;;;;20.63;12.40;;;;;;;3.47;100.00;96656.44;5091788;28;20428;-74
2022/01/02 09:54:44;;;;;;;14.60;12.30;;;;;;;3.55;100.00;96668.91;5073761;28;20475;-74
2022/01/02 09:57:11;;;;;;;13.63;11.40;;;;;;;3.64;100.00;96684.03;5073923;28;20493;-74
2022/01/02 09:59:38;;;;;;;17.00;12.13;;;;;;;3.78;100.00;96690.19;5092013;28;20443;-74
2022/01/02 10:02:06;;;;;;;18.07;13.27;;;;;;;3.49;100.00;96690.16;5091402;28;20443;-74
2022/01/02 10:04:39;;;;;;;17.57;12.00;;;;;;;3.46;100.00;96688.84;5073238;28;20504;-74
2022/01/02 10:07:25;;;;;;;15.57;11.70;;;;;;;3.58;100.00;96688.50;5073111;28;20469;-74
2022/01/02 10:09:52;;;;;;;12.17;10.70;;;;;;;3.78;100.00;96685.75;5056683;28;20805;-74
2022/01/02 10:12:29;;;;;;;18.13;14.23;;;;;;;3.78;100.00;96687.59;5073872;28;20833;-77
2022/01/02 10:15:19;;;;;;;19.37;11.87;;;;;;;3.86;100.00;96681.75;5072588;28;20463;-77
2022/01/02 10:18:02;;;;;;;16.10;12.13;;;;;;;3.91;100.00;96678.34;5072511;28;20502;-77
2022/01/02 10:20:39;;;;;;;14.50;12.57;;;;;;;4.23;100.00;96662.84;5072984;28;20870;-77
2022/01/02 10:23:23;;;;;;;17.90;12.67;;;;;;;4.18;100.00;96660.31;5073210;28;20441;-76
2022/01/02 10:25:59;;;;;;;17.30;14.10;;;;;;;4.16;100.00;96667.66;5056731;28;20432;-76
2022/01/02 10:28:35;;;;;;;16.77;14.23;;;;;;;4.23;100.00;96675.94;5056063;28;20538;-76
2022/01/02 10:31:14;;;;;;;13.50;12.07;;;;;;;4.34;100.00;96668.78;5056057;28;20430;-76
2022/01/02 10:33:47;;;;;;;14.73;12.33;;;;;;;4.45;100.00;96659.75;5055877;28;20488;-76
2022/01/02 10:36:33;;;;;;;17.77;12.30;;;;;;;4.51;100.00;96647.38;5072762;28;20598;-76
2022/01/02 10:39:04;;;;;;;16.87;13.17;;;;;;;4.56;100.00;96642.13;5055894;28;20451;-76
2022/01/02 10:41:34;;;;;;;14.23;11.57;;;;;;;4.49;100.00;96628.56;5075463;28;20435;-76
2022/01/02 10:44:26;;;;;;;14.80;11.57;;;;;;;4.51;100.00;96626.44;5059657;28;20439;-76
2022/01/02 10:47:32;;;;;;;14.40;11.77;;;;;;;4.59;100.00;96634.47;5075873;28;20458;-76
2022/01/02 10:50:04;;;;;;;17.77;12.10;;;;;;;4.71;100.00;96632.25;5011887;28;20493;-76
2022/01/02 10:52:39;;;;;;;14.10;12.70;;;;;;;4.59;100.00;96631.06;4995341;28;20493;-76
2022/01/02 10:55:16;;;;;;;15.73;12.60;;;;;;;4.48;100.00;96599.00;5011548;28;21045;-76
2022/01/02 10:57:47;;;;;;;17.27;13.17;;;;;;;4.66;100.00;96607.94;4994937;28;21013;-76
2022/01/02 11:00:26;;;;;;;14.87;12.03;;;;;;;4.49;100.00;96600.56;4978945;28;20882;-75
2022/01/02 11:02:53;;;;;;;14.67;13.17;;;;;;;4.49;100.00;96586.69;5011512;28;20629;-76
2022/01/02 11:05:22;;;;;;;18.87;13.70;;;;;;;4.78;100.00;96610.16;5011500;28;20538;-76
2022/01/02 11:07:51;;;;;;;15.30;12.47;;;;;;;4.46;100.00;96590.66;4978740;28;20478;-76
2022/01/02 11:10:20;;;;;;;17.33;13.43;;;;;;;4.41;100.00;96588.09;4995104;28;20435;-76
2022/01/02 11:12:49;;;;;;;20.53;13.67;;;;;;;4.60;100.00;96581.03;4978579;28;20459;-76
2022/01/02 11:15:19;;;;;;;14.87;11.40;;;;;;;4.59;100.00;96589.19;5011610;28;20909;-76
2022/01/02 11:17:47;;;;;;;19.57;13.30;;;;;;;4.43;100.00;96583.34;4994646;28;20570;-76
2022/01/02 11:20:33;;;;;;;17.77;14.63;;;;;;;4.51;100.00;96576.69;5015985;28;20470;-76
2022/01/02 11:23:17;;;;;;;16.40;12.90;;;;;;;4.65;100.00;96573.13;5075317;28;20447;-76
2022/01/02 11:26:10;;;;;;;17.60;13.40;;;;;;;4.87;100.00;96583.06;5094274;28;20416;-76
2022/01/02 11:28:45;;;;;;;17.70;11.50;;;;;;;4.94;100.00;96574.81;5076784;28;20470;-76
2022/01/02 11:31:33;;;;;;;14.70;11.73;;;;;;;5.07;100.00;96579.34;5077635;28;20427;-76
2022/01/02 11:34:01;;;;;;;13.73;12.40;;;;;;;5.00;100.00;96590.22;5096541;28;20470;-76
2022/01/02 11:36:31;;;;;;;14.57;12.10;;;;;;;5.13;100.00;96590.56;5061765;28;20482;-76
2022/01/02 11:39:10;;;;;;;21.43;13.40;;;;;;;5.21;100.00;96595.16;5096936;28;20872;-76